Time;durP1;ratioP1;P1;durP2;ratioP2;P2;SDS_P1;SDS_P2;PMS_P1;PMS_P2;Temp;Humidity;BMP_temperature;BMP_pressure;BME280_temperature;BME280_humidity;BME280_pressure;Samples;Min_cycle;Max_cycle;Signal;HPM_P1;HPM_P2
2023/05/12 00:01:03;;;;;;;0.68;0.68;;;14.00;99.90;;;;;;5072624;28;20214;-63
2023/05/12 00:03:29;;;;;;;0.60;0.60;;;14.00;99.90;;;;;;5072428;28;20203;-63
2023/05/12 00:06:02;;;;;;;0.80;0.80;;;14.10;99.90;;;;;;5073519;28;20729;-63
2023/05/12 00:08:29;;;;;;;0.80;0.60;;;14.00;99.90;;;;;;5052430;28;20207;-62
2023/05/12 00:10:56;;;;;;;0.73;0.73;;;14.00;99.90;;;;;;5054232;28;20200;-63
2023/05/12 00:13:23;;;;;;;0.70;0.70;;;14.00;99.90;;;;;;5066327;28;20221;-62
2023/05/12 00:15:50;;;;;;;0.50;0.50;;;14.00;99.90;;;;;;5078163;28;20203;-62
2023/05/12 00:18:17;;;;;;;0.70;0.70;;;14.00;99.90;;;;;;5072599;28;20245;-63
2023/05/12 00:20:44;;;;;;;1.30;0.60;;;14.10;99.90;;;;;;5072472;28;20203;-63
2023/05/12 00:23:12;;;;;;;0.60;0.60;;;14.00;99.90;;;;;;5072739;28;20239;-62
2023/05/12 00:25:39;;;;;;;0.60;0.60;;;14.00;99.90;;;;;;5073409;28;20199;-62
2023/05/12 00:28:06;;;;;;;0.63;0.63;;;14.00;99.90;;;;;;5073018;28;20237;-64
2023/05/12 00:30:33;;;;;;;0.60;0.60;;;14.00;99.90;;;;;;5072776;28;20275;-63
2023/05/12 00:32:59;;;;;;;0.60;0.60;;;14.00;99.90;;;;;;5074307;28;20396;-63
2023/05/12 00:35:26;;;;;;;0.70;0.70;;;13.90;99.90;;;;;;5073760;28;20206;-62
2023/05/12 00:37:54;;;;;;;0.60;0.60;;;13.90;99.90;;;;;;5071908;28;20258;-62
2023/05/12 00:40:22;;;;;;;0.70;0.70;;;13.80;99.90;;;;;;5074303;28;20885;-63
2023/05/12 00:42:49;;;;;;;0.63;0.63;;;13.80;99.90;;;;;;5059147;28;20595;-62
2023/05/12 00:45:16;;;;;;;0.70;0.70;;;13.80;99.90;;;;;;5068862;28;20634;-63
2023/05/12 00:47:43;;;;;;;0.63;0.63;;;13.80;99.90;;;;;;5071571;28;20201;-62
2023/05/12 00:50:10;;;;;;;0.80;0.80;;;13.80;99.90;;;;;;5074813;28;20207;-63
2023/05/12 00:52:37;;;;;;;0.60;0.60;;;13.80;99.90;;;;;;5072064;28;20234;-63
2023/05/12 00:55:05;;;;;;;0.63;0.63;;;13.80;99.90;;;;;;5071721;28;20213;-62
2023/05/12 00:57:33;;;;;;;0.70;0.70;;;13.80;99.90;;;;;;5071381;28;20309;-62
2023/05/12 01:00:00;;;;;;;0.70;0.70;;;13.90;99.90;;;;;;5071193;28;20674;-62
2023/05/12 01:02:27;;;;;;;0.57;0.57;;;13.90;99.90;;;;;;5071590;28;20233;-62
2023/05/12 01:04:54;;;;;;;0.60;0.60;;;13.90;99.90;;;;;;5072041;28;20207;-62
2023/05/12 01:07:22;;;;;;;0.90;0.90;;;13.90;99.90;;;;;;5073025;28;20203;-66
2023/05/12 01:09:55;;;;;;;0.60;0.60;;;13.90;99.90;;;;;;5071858;28;20203;-62
2023/05/12 01:12:22;;;;;;;0.77;0.77;;;13.90;99.90;;;;;;5071966;28;20238;-64
2023/05/12 01:14:51;;;;;;;0.70;0.70;;;13.90;99.90;;;;;;5072013;28;20194;-62
2023/05/12 01:17:21;;;;;;;0.40;0.40;;;13.90;99.90;;;;;;5071871;28;20598;-62
2023/05/12 01:19:50;;;;;;;0.60;0.60;;;13.90;99.90;;;;;;5071609;28;20199;-62
2023/05/12 01:22:17;;;;;;;0.80;0.80;;;13.90;99.90;;;;;;5071494;28;20315;-63
2023/05/12 01:24:51;;;;;;;0.57;0.57;;;13.90;99.90;;;;;;5071282;28;20207;-63
2023/05/12 01:27:21;;;;;;;0.97;0.60;;;13.90;99.90;;;;;;5071291;28;20249;-62
2023/05/12 01:29:49;;;;;;;0.57;0.57;;;14.00;99.90;;;;;;5071321;28;20187;-63
2023/05/12 01:32:17;;;;;;;0.60;0.60;;;14.00;99.90;;;;;;5071381;28;20223;-63
2023/05/12 01:34:44;;;;;;;0.70;0.70;;;14.00;99.90;;;;;;5071588;28;20207;-62
2023/05/12 01:37:11;;;;;;;0.53;0.53;;;14.00;99.90;;;;;;5071269;28;20223;-62
2023/05/12 01:39:38;;;;;;;0.70;0.63;;;14.00;99.90;;;;;;5071136;28;20215;-61
2023/05/12 01:42:06;;;;;;;0.50;0.50;;;14.00;99.90;;;;;;5071350;28;20223;-64
2023/05/12 01:44:34;;;;;;;0.63;0.63;;;14.00;99.90;;;;;;5069132;28;20209;-63
2023/05/12 01:47:01;;;;;;;0.70;0.70;;;14.00;99.90;;;;;;5071180;28;20203;-63
2023/05/12 01:49:28;;;;;;;0.90;0.80;;;14.00;99.90;;;;;;5070752;28;21032;-64
2023/05/12 01:51:55;;;;;;;0.60;0.60;;;14.00;99.90;;;;;;5071233;28;20229;-64
2023/05/12 01:54:21;;;;;;;0.67;0.67;;;14.00;99.90;;;;;;5070845;28;20673;-63
2023/05/12 01:56:48;;;;;;;0.60;0.60;;;14.00;99.90;;;;;;5071052;28;20234;-64
2023/05/12 01:59:15;;;;;;;0.67;0.67;;;14.00;99.90;;;;;;5071149;28;20222;-64
2023/05/12 02:01:43;;;;;;;0.70;0.70;;;14.00;99.90;;;;;;5071168;28;20229;-63
2023/05/12 02:04:10;;;;;;;0.73;0.73;;;14.00;99.90;;;;;;5071407;28;20206;-62
2023/05/12 02:06:37;;;;;;;0.60;0.60;;;14.00;99.90;;;;;;5070980;28;20696;-63
2023/05/12 02:09:04;;;;;;;1.07;0.70;;;13.90;99.90;;;;;;5070964;28;20264;-63
2023/05/12 02:11:31;;;;;;;0.50;0.50;;;14.00;99.90;;;;;;5071185;28;20222;-64
2023/05/12 02:13:58;;;;;;;0.50;0.50;;;14.00;99.90;;;;;;5070514;28;20203;-63
2023/05/12 02:16:25;;;;;;;0.60;0.60;;;14.00;99.90;;;;;;5070981;28;20203;-64
2023/05/12 02:18:53;;;;;;;0.67;0.67;;;14.10;99.90;;;;;;5070513;28;20191;-63
2023/05/12 02:21:20;;;;;;;0.60;0.60;;;14.00;99.90;;;;;;5073090;28;20246;-63
2023/05/12 02:23:47;;;;;;;0.70;0.70;;;14.00;99.90;;;;;;5075066;28;20213;-63
2023/05/12 02:26:14;;;;;;;0.70;0.70;;;14.10;99.90;;;;;;5074248;28;20568;-63
2023/05/12 02:28:40;;;;;;;0.87;0.70;;;14.10;99.90;;;;;;5074229;28;20688;-63
2023/05/12 02:31:07;;;;;;;0.60;0.60;;;14.10;99.90;;;;;;5074531;28;20253;-62
2023/05/12 02:33:34;;;;;;;0.73;0.73;;;14.20;99.90;;;;;;5074309;28;20210;-62
2023/05/12 02:36:02;;;;;;;0.50;0.50;;;14.10;99.90;;;;;;5074709;28;20234;-62
2023/05/12 02:38:29;;;;;;;0.70;0.70;;;14.10;99.90;;;;;;5054576;28;20228;-62
2023/05/12 02:40:56;;;;;;;0.50;0.50;;;14.10;99.90;;;;;;5072878;28;20290;-62
2023/05/12 02:43:23;;;;;;;1.17;0.80;;;14.00;99.90;;;;;;5073928;28;20239;-62
2023/05/12 02:45:50;;;;;;;0.73;0.73;;;14.00;99.90;;;;;;5073693;28;20673;-62
2023/05/12 02:48:17;;;;;;;0.63;0.63;;;14.00;99.90;;;;;;5074569;28;20708;-63
2023/05/12 02:50:44;;;;;;;0.63;0.63;;;14.00;99.90;;;;;;5073894;28;20203;-63
2023/05/12 02:53:12;;;;;;;0.67;0.67;;;14.00;99.90;;;;;;5074602;28;20263;-62
2023/05/12 02:55:39;;;;;;;0.70;0.70;;;14.00;99.90;;;;;;5074711;28;20225;-63
2023/05/12 02:58:06;;;;;;;0.60;0.60;;;14.00;99.90;;;;;;5075781;28;20338;-63
2023/05/12 03:00:33;;;;;;;0.50;0.50;;;13.90;99.90;;;;;;5075479;28;20199;-62
2023/05/12 03:03:00;;;;;;;0.70;0.70;;;13.90;99.90;;;;;;5075239;28;20227;-62
2023/05/12 03:05:27;;;;;;;0.67;0.67;;;13.90;99.90;;;;;;5074555;28;20215;-63
2023/05/12 03:07:53;;;;;;;0.50;0.50;;;13.90;99.90;;;;;;5073887;28;20697;-63
2023/05/12 03:10:22;;;;;;;0.70;0.70;;;13.90;99.90;;;;;;5073813;28;20203;-64
2023/05/12 03:12:48;;;;;;;0.60;0.60;;;13.90;99.90;;;;;;5073678;28;20288;-64
2023/05/12 03:15:15;;;;;;;0.80;0.80;;;13.90;99.90;;;;;;5073698;28;20211;-63
2023/05/12 03:17:42;;;;;;;0.70;0.70;;;13.90;99.90;;;;;;5073521;28;20656;-63
2023/05/12 03:20:09;;;;;;;0.70;0.70;;;13.90;99.90;;;;;;5073483;28;20205;-62
2023/05/12 03:22:36;;;;;;;0.70;0.70;;;13.80;99.90;;;;;;5073337;28;20249;-63
2023/05/12 03:25:04;;;;;;;0.70;0.70;;;13.80;99.90;;;;;;5073786;28;20207;-63
2023/05/12 03:27:32;;;;;;;0.60;0.60;;;13.80;99.90;;;;;;5073072;28;20202;-62
2023/05/12 03:30:00;;;;;;;0.60;0.60;;;13.70;99.90;;;;;;5073783;28;20210;-62
2023/05/12 03:32:28;;;;;;;0.70;0.70;;;13.70;99.90;;;;;;5073814;28;20258;-63
2023/05/12 03:34:55;;;;;;;0.60;0.60;;;13.80;99.90;;;;;;5073660;28;20579;-63
2023/05/12 03:37:21;;;;;;;0.70;0.70;;;13.80;99.90;;;;;;5073471;28;20296;-64
2023/05/12 03:39:48;;;;;;;0.60;0.60;;;13.70;99.90;;;;;;5073102;28;20337;-62
2023/05/12 03:42:16;;;;;;;0.97;0.70;;;13.70;99.90;;;;;;5073101;28;20229;-62
2023/05/12 03:44:44;;;;;;;0.80;0.80;;;13.80;99.90;;;;;;5073908;28;20207;-63
2023/05/12 03:47:11;;;;;;;0.60;0.60;;;13.70;99.90;;;;;;5073439;28;20210;-62
2023/05/12 03:49:38;;;;;;;0.60;0.60;;;13.70;99.90;;;;;;5073372;28;20617;-63
2023/05/12 03:52:05;;;;;;;0.67;0.67;;;13.70;99.90;;;;;;5072915;28;20246;-61
2023/05/12 03:54:32;;;;;;;0.80;0.80;;;13.70;99.90;;;;;;5073053;28;20208;-62
2023/05/12 03:56:59;;;;;;;0.60;0.60;;;13.80;99.90;;;;;;5072802;28;20664;-63
2023/05/12 03:59:25;;;;;;;0.63;0.60;;;13.80;99.90;;;;;;5072862;28;20218;-64
2023/05/12 04:01:54;;;;;;;0.60;0.60;;;13.80;99.90;;;;;;5073340;28;20227;-63
2023/05/12 04:04:20;;;;;;;0.70;0.70;;;13.80;99.90;;;;;;5073818;28;20536;-64
2023/05/12 04:06:47;;;;;;;0.60;0.60;;;13.80;99.90;;;;;;5073913;28;20207;-61
2023/05/12 04:09:15;;;;;;;1.42;0.82;;;13.80;99.90;;;;;;5073594;28;20619;-63
2023/05/12 04:11:41;;;;;;;0.80;0.80;;;13.80;99.90;;;;;;5072645;28;20698;-62
2023/05/12 04:14:08;;;;;;;0.70;0.70;;;13.80;99.90;;;;;;5072314;28;20626;-64
2023/05/12 04:16:35;;;;;;;0.60;0.60;;;13.90;99.90;;;;;;5072646;28;20211;-62
2023/05/12 04:19:03;;;;;;;0.80;0.80;;;13.80;99.90;;;;;;5072042;28;20219;-63
2023/05/12 04:21:31;;;;;;;0.70;0.70;;;13.80;99.90;;;;;;5072487;28;20376;-64
2023/05/12 04:23:58;;;;;;;0.60;0.60;;;13.80;99.90;;;;;;5072302;28;20203;-64
2023/05/12 04:26:25;;;;;;;0.53;0.53;;;13.80;99.90;;;;;;5072079;28;20207;-64
2023/05/12 04:28:52;;;;;;;0.70;0.70;;;13.70;99.90;;;;;;5072581;28;20210;-63
2023/05/12 04:31:19;;;;;;;0.60;0.60;;;13.70;99.90;;;;;;5073552;28;20779;-62
2023/05/12 04:33:46;;;;;;;0.60;0.60;;;13.70;99.90;;;;;;5073368;28;20229;-62
2023/05/12 04:36:14;;;;;;;0.67;0.67;;;13.70;99.90;;;;;;5072536;28;20198;-63
2023/05/12 04:38:41;;;;;;;0.70;0.70;;;13.70;99.90;;;;;;5073895;28;20214;-63
2023/05/12 04:41:08;;;;;;;0.63;0.63;;;13.80;99.90;;;;;;5072112;28;20661;-62
2023/05/12 04:43:34;;;;;;;0.80;0.80;;;13.80;99.90;;;;;;5089881;28;20247;-63
2023/05/12 04:46:01;;;;;;;0.60;0.60;;;13.80;99.90;;;;;;5089194;28;20212;-64
2023/05/12 04:48:28;;;;;;;0.80;0.80;;;13.80;99.90;;;;;;5071742;28;20556;-62
2023/05/12 04:50:55;;;;;;;0.67;0.67;;;13.80;99.90;;;;;;5071718;28;20617;-62
2023/05/12 04:53:23;;;;;;;0.80;0.80;;;13.70;99.90;;;;;;5071761;28;20616;-63
2023/05/12 04:55:51;;;;;;;0.70;0.70;;;13.70;99.90;;;;;;5071831;28;20211;-62
2023/05/12 04:58:18;;;;;;;0.70;0.70;;;13.70;99.90;;;;;;5071343;28;20313;-63
2023/05/12 05:00:45;;;;;;;0.90;0.90;;;13.70;99.90;;;;;;5071305;28;20296;-64
2023/05/12 05:03:12;;;;;;;0.80;0.80;;;13.70;99.90;;;;;;5072011;28;20273;-63
2023/05/12 05:05:38;;;;;;;0.90;0.90;;;13.70;99.90;;;;;;5071718;28;20203;-62
2023/05/12 05:08:05;;;;;;;0.80;0.80;;;13.70;99.90;;;;;;5072089;28;20202;-63
2023/05/12 05:10:33;;;;;;;0.90;0.90;;;13.70;99.90;;;;;;5071880;28;20199;-62
2023/05/12 05:13:00;;;;;;;0.60;0.60;;;13.70;99.90;;;;;;5072345;28;20305;-63
2023/05/12 05:15:27;;;;;;;0.65;0.65;;;13.70;99.90;;;;;;5071703;28;20556;-63
2023/05/12 05:17:54;;;;;;;0.85;0.85;;;13.80;99.90;;;;;;5072212;28;20218;-62
2023/05/12 05:20:21;;;;;;;0.70;0.70;;;13.80;99.90;;;;;;5071874;28;20207;-63
2023/05/12 05:22:48;;;;;;;0.68;0.68;;;13.80;99.90;;;;;;5071495;28;20846;-62
2023/05/12 05:25:15;;;;;;;0.70;0.70;;;13.80;99.90;;;;;;5071984;28;20206;-64
2023/05/12 05:27:43;;;;;;;0.77;0.77;;;13.80;99.90;;;;;;5071576;28;20245;-63
2023/05/12 05:30:10;;;;;;;0.55;0.55;;;13.80;99.90;;;;;;5071546;28;20203;-64
2023/05/12 05:32:39;;;;;;;1.10;0.90;;;13.80;99.90;;;;;;5075760;28;20223;-63
2023/05/12 05:35:06;;;;;;;0.60;0.60;;;13.80;99.90;;;;;;5055835;28;20639;-62
2023/05/12 05:37:33;;;;;;;0.60;0.60;;;13.90;99.90;;;;;;5051892;28;20246;-63
2023/05/12 05:40:00;;;;;;;0.80;0.80;;;13.80;99.90;;;;;;5054042;28;20214;-63
2023/05/12 05:42:27;;;;;;;1.30;0.90;;;13.90;99.90;;;;;;5052893;28;20227;-63
2023/05/12 05:44:55;;;;;;;0.90;0.90;;;13.90;99.90;;;;;;5063543;28;20662;-63
2023/05/12 05:47:22;;;;;;;0.53;0.53;;;13.90;99.90;;;;;;5071553;28;20310;-63
2023/05/12 05:49:49;;;;;;;0.70;0.70;;;13.90;99.90;;;;;;5073955;28;20199;-63
2023/05/12 05:52:16;;;;;;;0.70;0.70;;;13.90;99.90;;;;;;5072151;28;20237;-63
2023/05/12 05:54:43;;;;;;;0.90;0.90;;;13.90;99.90;;;;;;5071519;28;20213;-64
2023/05/12 05:57:10;;;;;;;0.80;0.80;;;13.90;99.90;;;;;;5074724;28;20200;-64
2023/05/12 05:59:37;;;;;;;0.80;0.80;;;13.90;99.90;;;;;;5075146;28;20318;-64
2023/05/12 06:02:05;;;;;;;0.80;0.80;;;13.90;99.90;;;;;;5075151;28;20259;-63
2023/05/12 06:04:32;;;;;;;0.60;0.60;;;14.00;99.90;;;;;;5075705;28;20204;-63
2023/05/12 06:06:59;;;;;;;0.60;0.60;;;14.00;99.90;;;;;;5074975;28;20722;-63
2023/05/12 06:09:25;;;;;;;0.70;0.70;;;14.00;99.90;;;;;;5074687;28;20200;-62
2023/05/12 06:11:52;;;;;;;0.60;0.60;;;14.00;99.90;;;;;;5075585;28;20223;-63
2023/05/12 06:14:19;;;;;;;0.70;0.70;;;14.00;99.90;;;;;;5075386;28;20696;-62
2023/05/12 06:16:46;;;;;;;0.70;0.70;;;13.90;99.90;;;;;;5075206;28;20568;-62
2023/05/12 06:19:14;;;;;;;0.67;0.67;;;13.90;99.90;;;;;;5055911;28;20230;-62
2023/05/12 06:21:42;;;;;;;0.53;0.53;;;13.90;99.90;;;;;;5068823;28;20237;-64
2023/05/12 06:24:08;;;;;;;0.80;0.80;;;13.90;99.90;;;;;;5075164;28;20211;-63
2023/05/12 06:26:36;;;;;;;0.50;0.50;;;13.90;99.90;;;;;;5074597;28;20200;-63
2023/05/12 06:29:06;;;;;;;0.73;0.60;;;13.90;99.90;;;;;;5074546;28;20322;-63
2023/05/12 06:31:33;;;;;;;0.60;0.60;;;13.90;99.90;;;;;;5074189;28;20227;-63
2023/05/12 06:34:00;;;;;;;0.80;0.80;;;13.90;99.90;;;;;;5075347;28;20203;-62
2023/05/12 06:36:28;;;;;;;0.88;0.88;;;13.90;99.90;;;;;;5074537;28;20221;-63
2023/05/12 06:38:55;;;;;;;0.90;0.90;;;14.00;99.90;;;;;;5074755;28;20239;-62
2023/05/12 06:41:23;;;;;;;0.85;0.85;;;14.00;99.90;;;;;;5075983;28;20261;-62
2023/05/12 06:43:50;;;;;;;0.70;0.70;;;14.10;99.90;;;;;;5075735;28;20653;-62
2023/05/12 06:46:17;;;;;;;0.77;0.77;;;14.10;99.90;;;;;;5074585;28;20207;-62
2023/05/12 06:48:44;;;;;;;0.70;0.70;;;14.10;99.90;;;;;;5074675;28;20267;-64
2023/05/12 06:51:12;;;;;;;0.70;0.70;;;14.10;99.90;;;;;;5074313;28;20242;-63
2023/05/12 06:53:40;;;;;;;0.88;0.80;;;14.20;99.90;;;;;;5074398;28;20192;-62
2023/05/12 06:56:10;;;;;;;0.70;0.70;;;14.20;99.90;;;;;;5074185;28;20294;-63
2023/05/12 06:58:37;;;;;;;0.75;0.75;;;14.30;99.90;;;;;;5074243;28;20743;-63
2023/05/12 07:01:04;;;;;;;1.60;0.80;;;14.30;99.90;;;;;;5073675;28;20193;-62
2023/05/12 07:03:32;;;;;;;0.70;0.70;;;14.40;99.90;;;;;;5074655;28;20773;-62
2023/05/12 07:05:59;;;;;;;0.82;0.82;;;14.50;99.90;;;;;;5075416;28;20610;-63
2023/05/12 07:08:26;;;;;;;0.70;0.70;;;14.40;99.90;;;;;;5076043;28;20209;-62
2023/05/12 07:10:54;;;;;;;0.75;0.70;;;14.50;99.90;;;;;;5075515;28;20203;-62
2023/05/12 07:13:21;;;;;;;0.63;0.63;;;14.70;99.90;;;;;;5074848;28;20231;-63
2023/05/12 07:15:48;;;;;;;0.80;0.80;;;14.70;99.90;;;;;;5074148;28;20207;-64
2023/05/12 07:18:15;;;;;;;1.00;1.00;;;14.80;99.90;;;;;;5074065;28;20253;-63
2023/05/12 07:20:42;;;;;;;0.80;0.80;;;14.80;99.90;;;;;;5073882;28;20203;-63
2023/05/12 07:23:09;;;;;;;0.70;0.70;;;14.90;99.90;;;;;;5073837;28;20273;-62
2023/05/12 07:25:36;;;;;;;0.90;0.90;;;14.90;99.90;;;;;;5073943;28;20203;-63
2023/05/12 07:28:05;;;;;;;0.80;0.80;;;15.10;99.90;;;;;;5074094;28;20203;-63
2023/05/12 07:30:32;;;;;;;0.70;0.70;;;15.10;99.90;;;;;;5073397;28;20231;-63
2023/05/12 07:33:00;;;;;;;1.00;1.00;;;15.10;99.90;;;;;;5073144;28;20700;-63
2023/05/12 07:35:27;;;;;;;0.90;0.90;;;15.10;99.90;;;;;;5073382;28;20211;-63
2023/05/12 07:37:53;;;;;;;0.85;0.85;;;15.10;99.90;;;;;;5073392;28;20292;-64
2023/05/12 07:40:20;;;;;;;1.60;1.60;;;15.20;99.90;;;;;;5073225;28;20299;-63
2023/05/12 07:42:47;;;;;;;2.60;2.50;;;15.20;99.90;;;;;;5073312;28;20219;-66
2023/05/12 07:45:21;;;;;;;3.70;3.50;;;15.20;99.90;;;;;;5074029;28;20207;-65
2023/05/12 07:47:48;;;;;;;3.90;3.70;;;15.00;99.90;;;;;;5073166;28;20239;-64
2023/05/12 07:50:15;;;;;;;2.83;2.73;;;14.80;99.90;;;;;;5073274;28;20691;-63
2023/05/12 07:52:47;;;;;;;3.57;3.37;;;14.90;99.90;;;;;;5073270;28;20223;-63
2023/05/12 07:55:14;;;;;;;3.35;3.25;;;14.80;99.90;;;;;;5073351;28;20187;-63
2023/05/12 07:57:41;;;;;;;2.80;2.60;;;14.90;99.90;;;;;;5073091;28;20562;-62
2023/05/12 08:00:09;;;;;;;2.97;2.80;;;14.90;99.90;;;;;;5072870;28;20219;-62
2023/05/12 08:02:38;;;;;;;3.30;3.10;;;14.90;99.90;;;;;;5072979;28;20231;-62
2023/05/12 08:05:07;;;;;;;3.05;2.95;;;14.90;99.90;;;;;;5072789;28;20298;-62
2023/05/12 08:07:34;;;;;;;3.35;3.15;;;14.90;99.90;;;;;;5073481;28;20231;-62
2023/05/12 08:10:01;;;;;;;3.20;3.10;;;14.80;99.90;;;;;;5072645;28;20184;-63
2023/05/12 08:12:28;;;;;;;4.25;3.95;;;14.80;99.90;;;;;;5072945;28;20310;-62
2023/05/12 08:14:55;;;;;;;3.17;3.08;;;14.90;99.90;;;;;;5072928;28;20294;-62
2023/05/12 08:17:22;;;;;;;4.07;3.87;;;14.80;99.90;;;;;;5072745;28;20207;-62
2023/05/12 08:19:50;;;;;;;3.33;3.23;;;14.70;99.90;;;;;;5071323;28;20684;-62
2023/05/12 08:22:17;;;;;;;3.17;2.93;;;14.60;99.90;;;;;;5072069;28;20231;-62
2023/05/12 08:24:45;;;;;;;2.77;2.67;;;14.70;99.90;;;;;;5072080;28;20199;-62
2023/05/12 08:27:12;;;;;;;2.60;2.50;;;14.60;99.90;;;;;;5072526;28;20722;-63
2023/05/12 08:29:39;;;;;;;2.40;2.30;;;14.50;99.90;;;;;;5071761;28;20203;-62
2023/05/12 08:32:06;;;;;;;2.50;2.40;;;14.60;99.90;;;;;;5072205;28;20587;-62
2023/05/12 08:34:33;;;;;;;2.30;2.20;;;14.60;99.90;;;;;;5072170;28;20211;-63
2023/05/12 08:37:01;;;;;;;2.60;2.50;;;14.70;99.90;;;;;;5072227;28;20203;-62
2023/05/12 08:39:29;;;;;;;2.53;2.42;;;14.90;99.90;;;;;;5071520;28;20222;-63
2023/05/12 08:42:09;;;;;;;2.30;2.20;;;14.80;99.90;;;;;;5072338;28;20569;-63
2023/05/12 08:44:37;;;;;;;1.85;1.80;;;14.90;99.90;;;;;;5072246;28;20274;-62
2023/05/12 08:47:05;;;;;;;1.60;1.60;;;14.80;99.90;;;;;;5072029;28;20207;-63
2023/05/12 08:49:32;;;;;;;1.90;1.80;;;14.80;99.90;;;;;;5072234;28;20207;-62
2023/05/12 08:52:02;;;;;;;1.83;1.73;;;14.90;99.90;;;;;;5072794;28;20227;-62
2023/05/12 08:54:29;;;;;;;1.60;1.60;;;15.00;99.90;;;;;;5072259;28;20203;-62
2023/05/12 08:56:57;;;;;;;1.65;1.55;;;15.10;99.90;;;;;;5071233;28;20210;-62
2023/05/12 08:59:24;;;;;;;1.50;1.50;;;15.10;99.90;;;;;;5069697;28;20238;-62
2023/05/12 09:01:52;;;;;;;1.80;1.70;;;15.40;99.90;;;;;;5069650;28;20233;-62
2023/05/12 09:04:19;;;;;;;1.70;1.70;;;15.50;99.90;;;;;;5069586;28;20693;-62
2023/05/12 09:06:46;;;;;;;1.67;1.60;;;15.50;99.90;;;;;;5070437;28;20195;-64
2023/05/12 09:09:17;;;;;;;1.30;1.30;;;15.50;99.90;;;;;;5069676;28;20198;-62
2023/05/12 09:11:45;;;;;;;1.50;1.50;;;15.40;99.90;;;;;;5070315;28;20313;-62
2023/05/12 09:14:17;;;;;;;1.40;1.40;;;15.60;99.90;;;;;;5069655;28;20860;-62
2023/05/12 09:16:47;;;;;;;1.40;1.40;;;15.80;99.90;;;;;;5069931;28;20646;-62
2023/05/12 09:19:19;;;;;;;1.17;1.17;;;15.90;99.90;;;;;;5069826;28;20243;-62
2023/05/12 09:21:46;;;;;;;1.40;1.40;;;15.80;99.90;;;;;;5070486;28;20623;-62
2023/05/12 09:24:13;;;;;;;1.40;1.40;;;15.80;99.90;;;;;;5071251;28;20562;-62
2023/05/12 09:26:50;;;;;;;1.40;1.40;;;15.90;99.90;;;;;;5070549;28;20211;-62
2023/05/12 09:29:17;;;;;;;1.60;1.60;;;15.90;99.90;;;;;;5064748;28;20207;-63
2023/05/12 09:31:50;;;;;;;1.33;1.33;;;15.70;99.90;;;;;;5074999;28;20288;-62
2023/05/12 09:34:18;;;;;;;1.37;1.37;;;15.60;99.90;;;;;;5080282;28;20290;-63
2023/05/12 09:36:45;;;;;;;1.58;1.50;;;15.80;99.90;;;;;;5075878;28;20207;-62
2023/05/12 09:39:12;;;;;;;1.70;1.60;;;15.60;99.90;;;;;;5074458;28;20708;-62
2023/05/12 09:41:40;;;;;;;1.80;1.70;;;15.70;99.90;;;;;;5073719;28;20223;-62
2023/05/12 09:44:10;;;;;;;1.95;1.75;;;15.60;99.90;;;;;;5073676;28;20241;-62
2023/05/12 09:46:38;;;;;;;1.90;1.80;;;15.50;99.90;;;;;;5073558;28;20210;-62
2023/05/12 09:49:05;;;;;;;1.87;1.77;;;15.50;99.90;;;;;;5073703;28;20226;-63
2023/05/12 09:51:32;;;;;;;1.90;1.80;;;15.50;99.90;;;;;;5074134;28;20227;-62
2023/05/12 09:53:59;;;;;;;1.85;1.77;;;15.70;99.90;;;;;;5066695;28;20207;-62
2023/05/12 09:56:28;;;;;;;1.67;1.67;;;15.70;99.90;;;;;;5073416;28;20677;-63
2023/05/12 09:58:56;;;;;;;1.30;1.30;;;15.90;99.90;;;;;;5072950;28;20211;-62
2023/05/12 10:01:26;;;;;;;1.50;1.50;;;16.10;99.90;;;;;;5072994;28;20720;-63
2023/05/12 10:03:55;;;;;;;1.60;1.50;;;16.30;99.90;;;;;;5072815;28;20203;-63
2023/05/12 10:06:25;;;;;;;1.50;1.50;;;16.40;99.90;;;;;;5074888;28;20650;-63
2023/05/12 10:08:57;;;;;;;1.45;1.45;;;16.40;99.90;;;;;;5072240;28;20253;-62
2023/05/12 10:11:25;;;;;;;1.30;1.30;;;16.30;99.90;;;;;;5069675;28;20706;-64
2023/05/12 10:13:53;;;;;;;1.33;1.30;;;16.30;99.90;;;;;;5073313;28;20218;-63
2023/05/12 10:16:21;;;;;;;1.30;1.30;;;16.40;99.90;;;;;;5073276;28;20224;-63
2023/05/12 10:18:50;;;;;;;1.50;1.50;;;16.60;99.90;;;;;;5072994;28;20215;-63
2023/05/12 10:21:18;;;;;;;1.67;1.60;;;16.60;99.90;;;;;;5073148;28;20207;-62
2023/05/12 10:23:46;;;;;;;1.90;1.80;;;16.70;99.90;;;;;;5073467;28;20200;-62
2023/05/12 10:26:16;;;;;;;1.50;1.50;;;16.80;99.90;;;;;;5072680;28;20765;-63
2023/05/12 10:28:44;;;;;;;1.48;1.48;;;16.80;99.90;;;;;;5072814;28;20214;-63
2023/05/12 10:31:11;;;;;;;1.40;1.40;;;16.90;99.90;;;;;;5072939;28;20657;-63
2023/05/12 10:33:38;;;;;;;1.35;1.35;;;17.00;99.90;;;;;;5073142;28;20207;-63
2023/05/12 10:36:16;;;;;;;1.80;1.70;;;17.20;99.90;;;;;;5073252;28;20206;-64
2023/05/12 10:38:43;;;;;;;1.30;1.30;;;17.20;99.90;;;;;;5073341;28;20195;-64
2023/05/12 10:41:11;;;;;;;1.63;1.50;;;17.20;99.90;;;;;;5072415;28;20223;-64
2023/05/12 10:43:40;;;;;;;1.30;1.30;;;17.10;99.90;;;;;;5072911;28;20210;-64
2023/05/12 10:46:16;;;;;;;1.30;1.30;;;16.90;99.90;;;;;;5073002;28;20231;-64
2023/05/12 10:48:54;;;;;;;1.63;1.52;;;17.10;99.90;;;;;;5073212;28;20650;-62
2023/05/12 10:51:25;;;;;;;1.20;1.20;;;17.00;99.90;;;;;;5072724;28;20677;-63
2023/05/12 10:53:53;;;;;;;1.50;1.38;;;17.10;99.90;;;;;;5074357;28;20237;-62
2023/05/12 10:56:25;;;;;;;1.65;1.60;;;17.00;99.90;;;;;;5073484;28;20273;-63
2023/05/12 10:59:23;;;;;;;1.30;1.30;;;17.10;99.90;;;;;;5073470;28;20200;-63
2023/05/12 11:01:58;;;;;;;1.20;1.20;;;17.20;99.90;;;;;;5011056;28;20241;-63
2023/05/12 11:04:39;;;;;;;1.37;1.37;;;17.20;99.90;;;;;;5011629;28;20696;-63
2023/05/12 11:07:08;;;;;;;1.20;1.20;;;17.20;99.90;;;;;;5012522;28;20189;-63
2023/05/12 11:09:36;;;;;;;1.08;1.08;;;17.10;99.90;;;;;;5010238;28;20682;-62
2023/05/12 11:12:05;;;;;;;1.00;1.00;;;17.20;99.90;;;;;;5011481;28;20241;-62
2023/05/12 11:14:32;;;;;;;1.05;1.05;;;17.20;99.90;;;;;;5012410;28;20618;-63
2023/05/12 11:17:00;;;;;;;1.10;1.10;;;17.20;99.90;;;;;;5012226;28;20309;-62
2023/05/12 11:19:27;;;;;;;1.00;1.00;;;17.20;99.90;;;;;;5011886;28;20295;-62
2023/05/12 11:21:55;;;;;;;1.00;1.00;;;17.10;99.90;;;;;;5012674;28;20288;-63
2023/05/12 11:24:23;;;;;;;1.00;1.00;;;17.20;99.90;;;;;;5012471;28;20206;-65
2023/05/12 11:26:51;;;;;;;1.00;1.00;;;17.30;99.90;;;;;;5013266;28;20288;-63
2023/05/12 11:29:18;;;;;;;1.00;1.00;;;17.30;99.90;;;;;;5013760;28;20268;-63
2023/05/12 11:31:48;;;;;;;1.20;1.20;;;17.30;99.90;;;;;;5013900;28;20263;-62
2023/05/12 11:34:15;;;;;;;1.17;1.17;;;17.30;99.90;;;;;;5011936;28;20213;-64
2023/05/12 11:36:43;;;;;;;1.00;1.00;;;17.30;99.90;;;;;;5045776;28;20206;-64
2023/05/12 11:39:15;;;;;;;1.00;1.00;;;17.40;99.90;;;;;;5053009;28;20203;-63
2023/05/12 11:41:43;;;;;;;1.10;1.10;;;17.30;99.90;;;;;;5053425;28;20226;-62
2023/05/12 11:44:17;;;;;;;1.02;1.02;;;17.20;99.90;;;;;;5052930;28;20235;-64
2023/05/12 11:46:55;;;;;;;1.08;1.08;;;17.30;99.90;;;;;;5053052;28;20195;-63
2023/05/12 11:49:21;;;;;;;0.90;0.90;;;17.20;99.90;;;;;;5052805;28;20210;-63
2023/05/12 11:51:50;;;;;;;1.15;1.10;;;17.20;99.90;;;;;;5053307;28;20268;-64
2023/05/12 11:54:17;;;;;;;0.98;0.98;;;17.10;99.90;;;;;;5052261;28;20204;-63
2023/05/12 11:56:49;;;;;;;0.80;0.80;;;17.00;99.90;;;;;;5053124;28;20206;-63
2023/05/12 11:59:29;;;;;;;0.90;0.90;;;17.00;99.90;;;;;;5069782;28;20245;-62
2023/05/12 12:01:57;;;;;;;0.88;0.88;;;16.90;99.90;;;;;;5072275;28;20223;-63
2023/05/12 12:04:34;;;;;;;0.90;0.90;;;16.90;99.90;;;;;;5070980;28;20756;-62
2023/05/12 12:07:01;;;;;;;0.80;0.80;;;16.90;99.90;;;;;;5072200;28;20716;-63
2023/05/12 12:09:32;;;;;;;0.80;0.80;;;16.80;99.90;;;;;;5071466;28;20230;-63
2023/05/12 12:12:02;;;;;;;0.70;0.70;;;16.70;99.90;;;;;;5072163;28;20231;-63
2023/05/12 12:14:30;;;;;;;0.88;0.88;;;16.70;99.90;;;;;;5071827;28;20221;-63
2023/05/12 12:16:57;;;;;;;1.23;1.10;;;16.90;99.90;;;;;;5071985;28;20203;-62
2023/05/12 12:19:24;;;;;;;0.90;0.90;;;16.80;99.90;;;;;;5071492;28;20213;-62
2023/05/12 12:21:51;;;;;;;1.15;1.05;;;16.70;99.90;;;;;;5071222;28;20317;-62
2023/05/12 12:24:17;;;;;;;0.90;0.90;;;16.70;99.90;;;;;;5071560;28;20213;-63
2023/05/12 12:26:44;;;;;;;1.10;1.10;;;16.70;99.90;;;;;;5069880;28;20203;-63
2023/05/12 12:29:13;;;;;;;0.90;0.90;;;16.80;99.90;;;;;;5071865;28;20207;-62
2023/05/12 12:31:40;;;;;;;1.00;1.00;;;16.90;99.90;;;;;;5072139;28;20215;-62
2023/05/12 12:34:07;;;;;;;1.00;1.00;;;17.00;99.90;;;;;;5071803;28;20764;-62
2023/05/12 12:36:34;;;;;;;1.10;1.10;;;16.80;99.90;;;;;;5072225;28;20590;-62
2023/05/12 12:39:02;;;;;;;1.10;1.10;;;16.60;99.90;;;;;;5072633;28;20229;-62
2023/05/12 12:41:28;;;;;;;1.10;1.10;;;16.70;99.90;;;;;;5071781;28;20284;-63
2023/05/12 12:43:55;;;;;;;0.95;0.95;;;16.60;99.90;;;;;;5072071;28;20203;-62
2023/05/12 12:46:23;;;;;;;1.00;1.00;;;16.70;99.90;;;;;;5072208;28;20505;-64
2023/05/12 12:48:50;;;;;;;1.00;1.00;;;16.80;99.90;;;;;;5072378;28;20184;-63
2023/05/12 12:51:17;;;;;;;1.10;1.10;;;16.80;99.90;;;;;;5071997;28;20206;-62